Time;durP1;ratioP1;P1;durP2;ratioP2;P2;SDS_P1;SDS_P2;PMS_P1;PMS_P2;Temp;Humidity;BMP_temperature;BMP_pressure;BME280_temperature;BME280_humidity;BME280_pressure;Samples;Min_cycle;Max_cycle;Signal;HPM_P1;HPM_P2
2023/01/12 00:00:37;;;;;;;;;;;;;;;25.57;44.96;94833.19;4896283;29;9017;-71
2023/01/12 00:03:03;;;;;;;;;;;;;;;25.55;45.09;94833.72;4877299;29;7215;-72
2023/01/12 00:05:29;;;;;;;;;;;;;;;25.55;44.83;94819.94;4876106;29;7279;-72
2023/01/12 00:08:05;;;;;;;;;;;;;;;25.55;45.57;94811.66;4895866;29;7228;-72
2023/01/12 00:10:40;;;;;;;;;;;;;;;25.54;44.89;94796.38;4895206;29;7023;-71
2023/01/12 00:13:30;;;;;;;;;;;;;;;25.53;45.55;94800.41;4895393;29;7066;-71
2023/01/12 00:18:47;;;;;;;;;;;;;;;25.53;45.30;94794.91;4903298;29;8933;-71
2023/01/12 00:21:16;;;;;;;;;;;;;;;25.55;45.46;94799.91;4896695;29;7027;-71
2023/01/12 00:23:46;;;;;;;;;;;;;;;25.53;44.66;94783.88;4900627;29;7269;-71
2023/01/12 00:26:11;;;;;;;;;;;;;;;25.53;45.25;94794.91;4890021;29;7279;-72
2023/01/12 00:28:40;;;;;;;;;;;;;;;25.52;44.63;94787.88;4897119;28;7856;-72
2023/01/12 00:31:09;;;;;;;;;;;;;;;25.52;45.46;94792.63;4954803;28;9128;-72
2023/01/12 00:33:39;;;;;;;;;;;;;;;25.51;44.95;94793.88;4954297;28;7290;-71
2023/01/12 00:36:12;;;;;;;;;;;;;;;25.50;44.84;94798.63;4982988;28;7242;-72
2023/01/12 00:38:42;;;;;;;;;;;;;;;25.48;45.24;94790.13;4988703;28;7126;-71
2023/01/12 00:41:10;;;;;;;;;;;;;;;25.51;44.54;94805.66;4964486;28;7166;-72
2023/01/12 00:46:31;;;;;;;;;;;;;;;25.49;44.76;94790.88;4950582;28;7032;-72
2023/01/12 00:48:58;;;;;;;;;;;;;;;25.49;44.63;94791.63;4953866;28;9213;-72
2023/01/12 00:51:25;;;;;;;;;;;;;;;25.50;45.05;94795.88;4956334;28;7573;-72
2023/01/12 00:54:03;;;;;;;;;;;;;;;25.51;44.85;94799.41;4973673;28;7422;-71
2023/01/12 00:56:48;;;;;;;;;;;;;;;25.50;44.45;94795.88;4963085;28;7705;-72
2023/01/12 00:59:20;;;;;;;;;;;;;;;25.49;45.24;94791.63;4947653;28;9152;-71
2023/01/12 01:01:59;;;;;;;;;;;;;;;25.50;45.34;94786.88;4958027;28;9085;-71
2023/01/12 01:04:35;;;;;;;;;;;;;;;25.50;44.36;94790.38;4956125;28;7670;-71
2023/01/12 01:07:08;;;;;;;;;;;;;;;25.48;45.16;94787.38;4953864;28;7336;-71
2023/01/12 01:09:43;;;;;;;;;;;;;;;25.51;45.39;94785.63;4961682;28;7282;-71
2023/01/12 01:12:12;;;;;;;;;;;;;;;25.50;45.20;94782.13;4955700;28;7242;-72
2023/01/12 01:14:38;;;;;;;;;;;;;;;25.50;44.58;94787.63;4951669;28;7021;-71
2023/01/12 01:17:04;;;;;;;;;;;;;;;25.49;44.75;94791.63;4955474;28;7105;-72
2023/01/12 01:19:31;;;;;;;;;;;;;;;25.47;45.10;94788.63;4942781;28;8222;-71
2023/01/12 01:22:07;;;;;;;;;;;;;;;25.48;45.28;94787.38;4969543;28;8177;-71
2023/01/12 01:24:36;;;;;;;;;;;;;;;25.48;44.88;94790.13;4952673;28;9130;-71
2023/01/12 01:27:08;;;;;;;;;;;;;;;25.48;44.88;94792.88;4950100;28;7391;-71
2023/01/12 01:29:44;;;;;;;;;;;;;;;25.49;44.96;94790.88;4973763;28;9068;-71
2023/01/12 01:32:24;;;;;;;;;;;;;;;25.48;44.72;94790.13;4953220;28;7597;-71
2023/01/12 01:34:53;;;;;;;;;;;;;;;25.46;44.67;94798.13;4968367;28;7528;-71
2023/01/12 01:37:35;;;;;;;;;;;;;;;25.46;44.31;94808.41;4953822;28;7034;-71
2023/01/12 01:40:04;;;;;;;;;;;;;;;25.46;44.96;94813.91;4946162;28;7023;-72
2023/01/12 01:42:30;;;;;;;;;;;;;;;25.47;44.92;94821.66;4971284;28;8725;-72
2023/01/12 01:44:58;;;;;;;;;;;;;;;25.46;45.45;94809.16;4953058;28;6999;-71
2023/01/12 01:47:38;;;;;;;;;;;;;;;25.42;45.14;94814.16;4954174;29;7057;-71
2023/01/12 01:50:41;;;;;;;;;;;;;;;25.42;44.98;94792.13;4954486;29;8588;-71
2023/01/12 01:53:46;;;;;;;;;;;;;;;25.41;45.50;94791.34;4958397;28;7331;-71
2023/01/12 01:56:19;;;;;;;;;;;;;;;25.40;45.34;94780.84;4951889;28;9134;-71
2023/01/12 01:59:03;;;;;;;;;;;;;;;25.41;45.18;94785.09;4947493;28;6974;-71
2023/01/12 02:01:30;;;;;;;;;;;;;;;25.42;44.59;94783.88;4956371;28;7270;-72
2023/01/12 02:03:57;;;;;;;;;;;;;;;25.42;45.08;94786.63;4940809;28;7025;-71
2023/01/12 02:06:27;;;;;;;;;;;;;;;25.41;45.45;94785.84;4944501;28;7147;-71
2023/01/12 02:09:26;;;;;;;;;;;;;;;25.42;44.53;94787.34;4956123;28;7509;-72
2023/01/12 02:18:27;;;;;;;;;;;;;;;25.40;44.55;94795.34;4915358;29;7361;-72
2023/01/12 02:21:49;;;;;;;;;;;;;;;25.40;44.85;94789.84;4898725;29;7171;-72
2023/01/12 02:28:24;;;;;;;;;;;;;;;25.40;44.47;94786.34;4821078;29;7039;-72
2023/01/12 02:31:38;;;;;;;;;;;;;;;25.40;44.65;94786.34;4819620;29;9381;-72
2023/01/12 02:34:23;;;;;;;;;;;;;;;25.39;45.10;94784.84;4804509;29;6865;-72
2023/01/12 02:37:35;;;;;;;;;;;;;;;25.38;45.03;94781.31;4806912;29;7036;-72
2023/01/12 02:43:48;;;;;;;;;;;;;;;25.38;44.71;94789.59;5084632;27;7110;-70
2023/01/12 02:46:22;;;;;;;;;;;;;;;25.40;45.27;94800.13;5060259;28;7351;-70
2023/01/12 02:49:26;;;;;;;;;;;;;;;25.39;45.02;94799.38;5056150;28;9457;-70
2023/01/12 02:52:00;;;;;;;;;;;;;;;25.40;44.34;94791.84;4989388;28;9129;-70
2023/01/12 02:54:29;;;;;;;;;;;;;;;25.39;45.23;94791.09;5003559;28;7087;-70
2023/01/12 02:57:12;;;;;;;;;;;;;;;25.41;45.24;94785.09;4980698;28;7503;-69
2023/01/12 02:59:44;;;;;;;;;;;;;;;25.40;44.87;94775.34;4994371;28;8858;-70
2023/01/12 03:02:26;;;;;;;;;;;;;;;25.39;44.51;94777.34;5011482;28;7177;-70
2023/01/12 03:05:32;;;;;;;;;;;;;;;25.41;44.29;94779.56;4992803;28;7272;-70
2023/01/12 03:08:16;;;;;;;;;;;;;;;25.40;44.80;94764.31;5028384;28;7041;-70
2023/01/12 03:11:10;;;;;;;;;;;;;;;25.39;44.36;94757.31;5020119;28;7236;-69
2023/01/12 03:14:15;;;;;;;;;;;;;;;25.40;45.26;94745.03;5016577;28;9464;-70
2023/01/12 03:16:55;;;;;;;;;;;;;;;25.39;44.99;94740.78;5024353;28;9338;-72
2023/01/12 03:19:33;;;;;;;;;;;;;;;25.39;44.83;94741.53;5025796;28;7123;-70
2023/01/12 03:22:16;;;;;;;;;;;;;;;25.40;45.18;94729.25;4998970;28;7060;-70
2023/01/12 03:24:53;;;;;;;;;;;;;;;25.40;44.75;94731.28;5020905;28;7031;-71
2023/01/12 03:27:41;;;;;;;;;;;;;;;25.39;45.33;94733.28;5054297;28;9219;-71
2023/01/12 03:30:22;;;;;;;;;;;;;;;25.40;45.04;94736.78;5055701;28;7185;-71
2023/01/12 03:32:53;;;;;;;;;;;;;;;25.38;44.62;94731.03;5050622;28;7250;-71
2023/01/12 03:35:26;;;;;;;;;;;;;;;25.40;44.57;94714.75;5065464;28;9384;-71
2023/01/12 03:37:59;;;;;;;;;;;;;;;25.39;44.87;94722.25;5067941;28;8817;-71
2023/01/12 03:40:36;;;;;;;;;;;;;;;25.36;44.93;94723.25;5066499;28;7271;-71
2023/01/12 03:43:20;;;;;;;;;;;;;;;25.40;44.26;94736.78;5074666;28;7035;-70
2023/01/12 03:45:53;;;;;;;;;;;;;;;25.40;44.92;94742.28;5049886;28;7053;-72
2023/01/12 03:48:35;;;;;;;;;;;;;;;25.36;45.21;94736.25;5053907;28;7282;-72
2023/01/12 03:51:29;;;;;;;;;;;;;;;25.39;44.60;94738.03;5060681;28;7215;-71
2023/01/12 03:54:17;;;;;;;;;;;;;;;25.36;45.03;94728.00;5058440;28;8386;-71
2023/01/12 03:56:55;;;;;;;;;;;;;;;25.38;44.20;94720.00;5048329;28;9051;-71
2023/01/12 03:59:41;;;;;;;;;;;;;;;25.38;44.23;94720.75;5050288;28;8697;-72
2023/01/12 04:02:11;;;;;;;;;;;;;;;25.39;44.62;94727.00;5064951;28;7391;-71
2023/01/12 04:05:11;;;;;;;;;;;;;;;25.38;44.98;94731.03;5061450;28;7034;-71
2023/01/12 04:07:47;;;;;;;;;;;;;;;25.39;44.84;94730.53;5004689;28;7114;-71
2023/01/12 04:10:27;;;;;;;;;;;;;;;25.38;44.93;94726.25;5009813;28;7446;-71
2023/01/12 04:13:25;;;;;;;;;;;;;;;25.39;44.20;94721.50;5005720;28;9352;-71
2023/01/12 04:15:53;;;;;;;;;;;;;;;25.37;44.84;94702.75;4948732;28;7273;-71
2023/01/12 04:18:20;;;;;;;;;;;;;;;25.39;44.94;94694.72;4946021;28;8060;-71
2023/01/12 04:20:46;;;;;;;;;;;;;;;25.38;44.30;94703.50;4937456;28;7715;-71
2023/01/12 04:23:51;;;;;;;;;;;;;;;25.38;44.19;94701.47;4952232;28;9795;-70
2023/01/12 04:26:31;;;;;;;;;;;;;;;25.35;44.22;94691.47;4950569;28;7188;-71
2023/01/12 04:28:57;;;;;;;;;;;;;;;25.37;44.63;94704.72;4939104;28;7233;-71
2023/01/12 04:31:35;;;;;;;;;;;;;;;25.37;44.81;94713.75;4949063;28;7245;-70
2023/01/12 04:34:01;;;;;;;;;;;;;;;25.40;45.17;94709.25;4957546;28;7097;-70
2023/01/12 04:36:35;;;;;;;;;;;;;;;25.39;44.23;94716.00;4934183;28;7035;-70
2023/01/12 04:39:30;;;;;;;;;;;;;;;25.38;44.89;94715.25;4949601;28;8730;-71
2023/01/12 04:41:59;;;;;;;;;;;;;;;25.39;44.63;94725.00;4906113;29;7123;-70
2023/01/12 04:44:26;;;;;;;;;;;;;;;25.39;44.44;94729.75;4925770;29;7266;-71
2023/01/12 04:46:51;;;;;;;;;;;;;;;25.37;44.00;94724.00;4914009;29;9327;-71
2023/01/12 04:49:27;;;;;;;;;;;;;;;25.35;44.83;94721.75;4926132;29;7340;-71
2023/01/12 04:51:53;;;;;;;;;;;;;;;25.36;44.59;94719.75;4916993;28;7068;-71
2023/01/12 04:54:21;;;;;;;;;;;;;;;25.36;45.25;94719.75;4899412;29;8207;-71
2023/01/12 04:56:47;;;;;;;;;;;;;;;25.37;44.83;94722.00;4941250;28;7142;-71
2023/01/12 04:59:13;;;;;;;;;;;;;;;25.36;44.81;94728.00;4987056;28;7183;-71
2023/01/12 05:01:40;;;;;;;;;;;;;;;25.36;44.55;94731.50;4959101;28;7010;-71
2023/01/12 05:04:09;;;;;;;;;;;;;;;25.36;44.50;94722.50;4965136;28;7241;-71
2023/01/12 05:06:37;;;;;;;;;;;;;;;25.34;44.98;94730.50;4965235;28;7076;-72
2023/01/12 05:11:50;;;;;;;;;;;;;;;25.37;44.70;94724.00;4982611;28;7044;-71
2023/01/12 05:14:16;;;;;;;;;;;;;;;25.38;44.83;94736.53;4977458;28;7042;-71
2023/01/12 05:16:43;;;;;;;;;;;;;;;25.37;45.08;94729.50;4988098;28;7019;-71
2023/01/12 05:19:13;;;;;;;;;;;;;;;25.37;44.25;94737.78;5039246;28;7266;-71
2023/01/12 05:21:39;;;;;;;;;;;;;;;25.37;44.15;94730.28;5053815;28;8247;-71
2023/01/12 05:24:05;;;;;;;;;;;;;;;25.37;44.20;94724.75;5050271;28;7003;-71
2023/01/12 05:26:33;;;;;;;;;;;;;;;25.38;44.86;94725.53;5052778;28;7280;-71
2023/01/12 05:28:59;;;;;;;;;;;;;;;25.37;45.02;94730.28;5035245;28;7207;-71
2023/01/12 05:31:25;;;;;;;;;;;;;;;25.35;44.67;94732.78;5054712;28;7585;-71
2023/01/12 05:33:52;;;;;;;;;;;;;;;25.38;44.46;94742.78;5060278;28;7293;-70
2023/01/12 05:36:19;;;;;;;;;;;;;;;25.37;44.88;94741.28;5068775;28;7447;-70
2023/01/12 05:38:48;;;;;;;;;;;;;;;25.37;44.78;94752.31;5040805;28;7706;-70
2023/01/12 05:44:32;;;;;;;;;;;;;;;25.36;44.15;94750.03;5058073;28;7022;-69
2023/01/12 05:46:58;;;;;;;;;;;;;;;25.38;44.61;94753.06;5051200;28;9035;-71
2023/01/12 05:49:29;;;;;;;;;;;;;;;25.39;44.76;94751.78;5047922;28;7764;-71
2023/01/12 05:52:12;;;;;;;;;;;;;;;25.40;44.36;94750.56;5049485;28;9085;-70
2023/01/12 05:55:13;;;;;;;;;;;;;;;25.39;44.94;94760.06;5057408;28;7882;-70
2023/01/12 05:57:50;;;;;;;;;;;;;;;25.43;44.56;94755.81;4989787;28;7208;-70
2023/01/12 06:00:17;;;;;;;;;;;;;;;25.45;43.87;94760.81;4989496;28;7092;-70
2023/01/12 06:02:44;;;;;;;;;;;;;;;25.48;44.42;94762.59;4991630;28;7340;-71
2023/01/12 06:05:20;;;;;;;;;;;;;;;25.47;44.33;94760.34;5001340;28;7370;-71
2023/01/12 06:07:48;;;;;;;;;;;;;;;25.49;44.68;94755.81;4991933;28;9142;-71
2023/01/12 06:10:18;;;;;;;;;;;;;;;25.51;44.61;94755.34;5004485;28;8604;-71
2023/01/12 06:15:41;;;;;;;;;;;;;;;25.53;44.24;94756.34;5006022;28;7235;-71
2023/01/12 06:18:17;;;;;;;;;;;;;;;25.55;45.07;94756.59;4988594;28;9399;-71
2023/01/12 06:20:43;;;;;;;;;;;;;;;25.59;44.47;94748.81;4987452;28;7113;-71
2023/01/12 06:23:20;;;;;;;;;;;;;;;25.56;45.11;94741.53;4988028;28;7030;-70
2023/01/12 06:26:15;;;;;;;;;;;;;;;25.59;44.08;94740.56;4984478;28;9061;-70
2023/01/12 06:28:42;;;;;;;;;;;;;;;25.59;44.92;94737.03;4985760;28;7042;-69
2023/01/12 06:31:13;;;;;;;;;;;;;;;25.59;44.03;94746.06;4962377;28;7136;-71
2023/01/12 06:33:39;;;;;;;;;;;;;;;25.57;44.94;94742.31;4975483;28;7246;-71
2023/01/12 06:36:06;;;;;;;;;;;;;;;25.59;44.83;94731.53;5012113;28;7260;-71
2023/01/12 06:38:36;;;;;;;;;;;;;;;25.62;44.47;94733.28;5001243;28;9463;-71
2023/01/12 06:43:56;;;;;;;;;;;;;;;25.60;44.32;94741.31;4979849;28;6998;-69
2023/01/12 06:46:22;;;;;;;;;;;;;;;25.64;43.97;94742.56;4960020;28;7701;-68
2023/01/12 06:48:48;;;;;;;;;;;;;;;25.66;44.04;94740.06;4969262;28;7023;-68
2023/01/12 06:51:16;;;;;;;;;;;;;;;25.68;44.37;94737.53;4974167;28;7200;-68
2023/01/12 06:53:42;;;;;;;;;;;;;;;25.69;43.85;94738.28;4955912;28;9516;-67
2023/01/12 06:56:10;;;;;;;;;;;;;;;25.70;44.31;94739.78;4985114;28;9729;-68
2023/01/12 06:58:36;;;;;;;;;;;;;;;25.70;44.21;94731.53;4980544;28;9046;-67
2023/01/12 07:01:03;;;;;;;;;;;;;;;25.69;43.43;94719.75;4959482;28;9306;-68
2023/01/12 07:03:29;;;;;;;;;;;;;;;25.70;43.32;94726.75;4955679;28;9110;-67
2023/01/12 07:06:01;;;;;;;;;;;;;;;25.71;43.48;94724.78;4985360;28;7311;-68
2023/01/12 07:08:30;;;;;;;;;;;;;;;25.69;44.06;94722.50;4983693;28;9129;-67
2023/01/12 07:11:02;;;;;;;;;;;;;;;25.68;43.90;94726.53;4999025;28;9241;-68
2023/01/12 07:13:30;;;;;;;;;;;;;;;25.69;44.30;94728.00;4988504;28;7522;-68
2023/01/12 07:16:00;;;;;;;;;;;;;;;25.68;43.91;94728.53;4984470;28;7358;-67
2023/01/12 07:18:29;;;;;;;;;;;;;;;25.67;44.18;94721.50;5002168;28;7207;-67
2023/01/12 07:20:55;;;;;;;;;;;;;;;25.66;43.78;94720.78;5011043;28;7159;-67
2023/01/12 07:23:21;;;;;;;;;;;;;;;25.64;44.32;94714.25;5043441;28;9182;-69
2023/01/12 07:25:51;;;;;;;;;;;;;;;25.64;44.29;94709.50;5059154;28;9339;-70
2023/01/12 07:28:17;;;;;;;;;;;;;;;25.65;44.19;94699.22;5039899;28;7318;-70
2023/01/12 07:30:50;;;;;;;;;;;;;;;25.63;43.41;94690.69;5049521;28;7222;-70
2023/01/12 07:33:16;;;;;;;;;;;;;;;25.61;43.40;94682.94;5051556;28;9099;-69
2023/01/12 07:35:45;;;;;;;;;;;;;;;25.63;43.90;94679.69;5046571;28;7314;-70
2023/01/12 07:38:11;;;;;;;;;;;;;;;25.62;44.36;94673.41;5049558;28;7038;-70
2023/01/12 07:40:37;;;;;;;;;;;;;;;25.63;44.53;94660.41;5053086;28;7127;-70
2023/01/12 07:43:06;;;;;;;;;;;;;;;25.62;44.30;94661.66;5046198;28;9595;-70
2023/01/12 07:45:33;;;;;;;;;;;;;;;25.63;43.98;94669.44;5041726;28;7123;-70
2023/01/12 07:48:00;;;;;;;;;;;;;;;25.63;44.12;94674.94;5052708;28;9049;-70
2023/01/12 07:50:30;;;;;;;;;;;;;;;25.63;44.23;94685.94;5062219;28;7844;-70
2023/01/12 07:52:59;;;;;;;;;;;;;;;25.64;43.69;94687.47;5068327;28;8965;-70
2023/01/12 07:55:26;;;;;;;;;;;;;;;25.63;43.95;94688.72;5046841;28;7322;-70
2023/01/12 07:57:54;;;;;;;;;;;;;;;25.60;44.19;94695.22;5059419;28;7190;-69
2023/01/12 08:00:23;;;;;;;;;;;;;;;25.64;44.62;94704.00;5043796;28;7147;-70
2023/01/12 08:03:08;;;;;;;;;;;;;;;25.68;44.83;94709.22;5051810;28;7025;-70
2023/01/12 08:05:37;;;;;;;;;;;;;;;25.70;44.41;94707.47;5068044;28;9095;-70
2023/01/12 08:08:05;;;;;;;;;;;;;;;25.69;43.84;94705.22;5053014;28;7105;-69
2023/01/12 08:10:39;;;;;;;;;;;;;;;25.66;44.18;94707.00;5052003;28;9094;-69
2023/01/12 08:13:05;;;;;;;;;;;;;;;25.67;44.65;94702.97;5054404;28;7417;-69
2023/01/12 08:15:36;;;;;;;;;;;;;;;25.68;44.23;94700.97;5049853;28;9228;-69
2023/01/12 08:18:18;;;;;;;;;;;;;;;25.66;44.56;94695.97;5053263;28;8762;-69
2023/01/12 08:20:48;;;;;;;;;;;;;;;25.67;44.81;94683.69;5078053;28;7305;-69
2023/01/12 08:23:31;;;;;;;;;;;;;;;25.67;44.43;94691.19;5041196;28;7006;-69
2023/01/12 08:26:05;;;;;;;;;;;;;;;25.66;44.95;94701.47;5052811;28;7384;-69
2023/01/12 08:28:46;;;;;;;;;;;;;;;25.68;44.65;94718.25;5057868;28;7161;-70
2023/01/12 08:31:18;;;;;;;;;;;;;;;25.68;44.55;94726.53;5047649;28;7143;-70
2023/01/12 08:33:47;;;;;;;;;;;;;;;25.64;44.32;94725.28;5044267;28;7285;-70
2023/01/12 08:36:17;;;;;;;;;;;;;;;25.62;44.46;94725.75;5028240;28;7604;-70
2023/01/12 08:38:48;;;;;;;;;;;;;;;25.65;44.37;94727.50;5038701;28;10071;-70
2023/01/12 08:41:32;;;;;;;;;;;;;;;25.64;44.90;94723.28;5044467;28;7279;-70
2023/01/12 08:44:09;;;;;;;;;;;;;;;25.64;44.08;94731.53;5046603;28;9723;-70
2023/01/12 08:46:53;;;;;;;;;;;;;;;25.64;44.78;94725.28;5065214;28;7543;-70
2023/01/12 08:49:23;;;;;;;;;;;;;;;25.61;44.25;94710.50;5054167;28;9421;-70
2023/01/12 08:51:48;;;;;;;;;;;;;;;25.62;44.22;94714.00;5063619;28;7824;-70
2023/01/12 08:54:24;;;;;;;;;;;;;;;25.65;44.86;94710.22;5048418;28;7697;-69
2023/01/12 08:56:54;;;;;;;;;;;;;;;25.64;44.18;94717.78;5050431;28;7022;-70
2023/01/12 08:59:24;;;;;;;;;;;;;;;25.64;43.66;94715.00;5044716;28;9218;-70
2023/01/12 09:01:55;;;;;;;;;;;;;;;25.62;44.47;94717.50;5048277;28;7103;-71
2023/01/12 09:04:22;;;;;;;;;;;;;;;25.65;44.11;94726.75;5044841;28;7119;-70
2023/01/12 09:06:53;;;;;;;;;;;;;;;25.65;43.70;94721.25;5053353;28;7063;-70
2023/01/12 09:09:23;;;;;;;;;;;;;;;25.64;43.98;94717.78;5049149;28;7022;-70
2023/01/12 09:11:50;;;;;;;;;;;;;;;25.65;44.33;94719.25;5044670;28;7433;-71
2023/01/12 09:14:18;;;;;;;;;;;;;;;25.66;44.38;94723.53;5043885;28;7204;-70
2023/01/12 09:16:51;;;;;;;;;;;;;;;25.63;44.29;94734.78;5045395;28;7464;-70
2023/01/12 09:19:48;;;;;;;;;;;;;;;25.64;43.78;94733.53;5050245;28;7115;-70
2023/01/12 09:22:20;;;;;;;;;;;;;;;25.64;44.21;94731.53;5046550;28;8722;-70
2023/01/12 09:24:46;;;;;;;;;;;;;;;25.63;44.11;94727.28;5057085;28;7361;-70
2023/01/12 09:27:13;;;;;;;;;;;;;;;25.62;44.53;94714.75;5061452;28;7121;-70
2023/01/12 09:29:41;;;;;;;;;;;;;;;25.64;44.34;94719.75;5042700;28;8840;-70
2023/01/12 09:32:09;;;;;;;;;;;;;;;25.67;44.42;94725.00;5050703;28;7258;-70
2023/01/12 09:34:41;;;;;;;;;;;;;;;25.67;44.63;94722.25;5056572;28;8238;-70
2023/01/12 09:37:08;;;;;;;;;;;;;;;25.66;44.20;94720.78;5039778;28;7026;-70
2023/01/12 09:39:34;;;;;;;;;;;;;;;25.65;44.49;94711.00;5048971;28;8579;-70
2023/01/12 09:48:00;;;;;;;;;;;;;;;25.68;43.52;94709.22;5029832;28;7375;-70
2023/01/12 09:50:35;;;;;;;;;;;;;;;25.68;44.06;94718.25;5027099;28;9070;-70
2023/01/12 09:53:06;;;;;;;;;;;;;;;25.69;44.59;94716.97;5012511;28;8792;-70
2023/01/12 09:56:24;;;;;;;;;;;;;;;25.70;44.41;94712.22;5008617;28;7240;-70
2023/01/12 09:59:33;;;;;;;;;;;;;;;25.68;44.33;94710.00;4983381;28;7321;-70
2023/01/12 10:01:59;;;;;;;;;;;;;;;25.67;44.33;94707.72;4971335;28;7164;-70
2023/01/12 10:04:25;;;;;;;;;;;;;;;25.67;43.56;94708.47;4984095;28;9024;-70
2023/01/12 10:06:51;;;;;;;;;;;;;;;25.67;43.50;94708.47;4970665;28;7219;-71
2023/01/12 10:09:22;;;;;;;;;;;;;;;25.68;43.95;94710.00;4984821;28;7102;-70
2023/01/12 10:12:05;;;;;;;;;;;;;;;25.69;44.00;94705.97;4969641;28;7050;-71
2023/01/12 10:14:39;;;;;;;;;;;;;;;25.68;44.14;94701.72;4969684;28;7024;-71
2023/01/12 10:17:05;;;;;;;;;;;;;;;25.69;43.66;94696.94;4985952;28;8721;-70
2023/01/12 10:20:07;;;;;;;;;;;;;;;25.65;44.51;94705.47;4984213;28;7439;-70
2023/01/12 10:22:42;;;;;;;;;;;;;;;25.67;43.69;94700.22;4990946;28;6998;-70
2023/01/12 10:25:21;;;;;;;;;;;;;;;25.68;44.24;94704.47;5001610;28;7350;-70
2023/01/12 10:27:51;;;;;;;;;;;;;;;25.68;44.18;94698.22;4978401;28;7368;-70
2023/01/12 10:30:39;;;;;;;;;;;;;;;25.69;43.73;94694.94;5003041;28;7241;-70
2023/01/12 10:33:15;;;;;;;;;;;;;;;25.68;43.52;94700.97;4997887;28;7276;-70
2023/01/12 10:36:08;;;;;;;;;;;;;;;25.68;44.46;94696.22;5049465;28;7091;-70
2023/01/12 10:38:38;;;;;;;;;;;;;;;25.68;43.79;94696.22;4999645;28;7143;-71
2023/01/12 10:41:09;;;;;;;;;;;;;;;25.70;43.71;94699.22;5007406;28;7148;-70
2023/01/12 10:43:37;;;;;;;;;;;;;;;25.70;43.97;94690.94;5004275;28;9174;-70
2023/01/12 10:46:25;;;;;;;;;;;;;;;25.68;44.16;94693.47;5008584;28;9233;-70
2023/01/12 10:49:16;;;;;;;;;;;;;;;25.70;43.43;94690.94;4990821;28;7227;-70
2023/01/12 10:52:35;;;;;;;;;;;;;;;25.69;43.95;94694.94;4990859;28;7393;-70
2023/01/12 10:55:01;;;;;;;;;;;;;;;25.70;43.34;94690.94;4963895;28;9264;-70
2023/01/12 10:57:32;;;;;;;;;;;;;;;25.71;44.16;94692.44;4970703;28;7008;-70
2023/01/12 11:00:01;;;;;;;;;;;;;;;25.71;43.68;94691.72;4968456;28;7049;-71
2023/01/12 11:02:42;;;;;;;;;;;;;;;25.70;43.26;94692.94;4985341;28;7477;-70
2023/01/12 11:05:26;;;;;;;;;;;;;;;25.69;43.82;94694.19;4983468;28;7917;-70
2023/01/12 11:07:54;;;;;;;;;;;;;;;25.70;44.08;94701.97;4979825;28;7186;-70
2023/01/12 11:10:36;;;;;;;;;;;;;;;25.70;43.86;94701.22;4975247;28;7739;-70
2023/01/12 11:13:04;;;;;;;;;;;;;;;25.66;44.00;94690.47;4969739;28;7314;-71
2023/01/12 11:15:38;;;;;;;;;;;;;;;25.64;43.47;94692.22;5008130;28;7306;-70
2023/01/12 11:18:25;;;;;;;;;;;;;;;25.65;43.25;94688.94;4997907;28;9026;-71
2023/01/12 11:21:07;;;;;;;;;;;;;;;25.66;44.00;94690.47;5021273;28;7370;-71
2023/01/12 11:23:40;;;;;;;;;;;;;;;25.68;43.70;94687.19;5002545;28;7289;-70
2023/01/12 11:26:35;;;;;;;;;;;;;;;25.69;44.02;94683.94;5001713;28;7277;-71
2023/01/12 11:29:22;;;;;;;;;;;;;;;25.69;43.62;94677.66;5011801;28;7616;-71
2023/01/12 11:31:59;;;;;;;;;;;;;;;25.69;44.18;94672.16;5044093;28;9413;-71
2023/01/12 11:34:34;;;;;;;;;;;;;;;25.65;44.73;94661.41;5041506;28;7032;-71
2023/01/12 11:37:12;;;;;;;;;;;;;;;25.63;44.62;94672.19;5051412;28;7298;-71
2023/01/12 11:39:41;;;;;;;;;;;;;;;25.65;44.41;94671.66;5046117;28;7603;-71
2023/01/12 11:45:37;;;;;;;;;;;;;;;25.70;44.43;94651.63;5064936;28;7050;-71
2023/01/12 11:48:35;;;;;;;;;;;;;;;25.70;43.83;94646.13;4951632;28;7305;-71
2023/01/12 11:51:01;;;;;;;;;;;;;;;25.72;43.82;94643.59;4944903;28;7272;-69
2023/01/12 11:53:27;;;;;;;;;;;;;;;25.71;44.09;94637.34;4939816;28;7008;-70
2023/01/12 11:55:58;;;;;;;;;;;;;;;25.71;43.16;94637.34;4944106;28;7440;-71
2023/01/12 11:58:47;;;;;;;;;;;;;;;25.71;44.16;94640.09;4945167;28;7046;-70
2023/01/12 12:01:19;;;;;;;;;;;;;;;25.72;43.27;94638.84;4924937;28;7126;-70
2023/01/12 12:03:56;;;;;;;;;;;;;;;25.71;43.73;94629.06;4926779;28;8075;-70
2023/01/12 12:07:03;;;;;;;;;;;;;;;25.70;43.98;94619.31;4949668;28;7027;-70
2023/01/12 12:09:42;;;;;;;;;;;;;;;25.69;43.90;94628.06;4891357;29;9045;-69
2023/01/12 12:12:41;;;;;;;;;;;;;;;25.70;43.73;94616.56;4910382;29;8961;-70
2023/01/12 12:15:26;;;;;;;;;;;;;;;25.69;43.60;94617.81;4874472;29;8797;-70
2023/01/12 12:18:18;;;;;;;;;;;;;;;25.69;43.81;94606.03;4870826;29;9506;-70
2023/01/12 12:21:31;;;;;;;;;;;;;;;25.72;44.11;94599.53;4856626;29;9561;-70
2023/01/12 12:24:06;;;;;;;;;;;;;;;25.72;43.65;94597.53;4849410;29;7284;-70
2023/01/12 12:26:44;;;;;;;;;;;;;;;25.74;44.08;94600.53;4895856;29;7114;-70
2023/01/12 12:29:36;;;;;;;;;;;;;;;25.77;43.89;94590.50;4905680;29;9067;-70
2023/01/12 12:32:34;;;;;;;;;;;;;;;25.80;43.88;94589.47;4892426;29;7024;-70
2023/01/12 12:35:32;;;;;;;;;;;;;;;25.80;43.57;94586.72;4891190;29;7201;-71
2023/01/12 12:38:19;;;;;;;;;;;;;;;25.83;44.20;94589.22;4904499;29;8233;-70
2023/01/12 12:47:28;;;;;;;;;;;;;;;25.81;43.55;94590.97;4910443;29;9032;-69
2023/01/12 12:49:57;;;;;;;;;;;;;;;25.75;43.53;94579.25;4885508;29;7019;-69
2023/01/12 12:52:34;;;;;;;;;;;;;;;25.76;43.36;94583.47;4920267;28;7109;-70
2023/01/12 12:55:03;;;;;;;;;;;;;;;25.75;44.06;94565.47;4935996;28;7183;-69
2023/01/12 12:57:32;;;;;;;;;;;;;;;25.70;43.74;94564.22;4940293;28;7060;-69
2023/01/12 13:00:29;;;;;;;;;;;;;;;25.69;44.48;94565.47;4976432;28;7029;-69
2023/01/12 13:02:57;;;;;;;;;;;;;;;25.66;44.48;94560.25;4941032;28;7076;-70
2023/01/12 13:05:40;;;;;;;;;;;;;;;25.63;44.04;94548.22;4965142;28;9272;-69
2023/01/12 13:08:38;;;;;;;;;;;;;;;25.64;44.02;94548.97;4968042;28;7459;-69
2023/01/12 13:11:45;;;;;;;;;;;;;;;25.64;44.13;94549.72;4952932;28;7226;-68
2023/01/12 13:14:25;;;;;;;;;;;;;;;25.64;43.44;94541.47;4912056;29;7296;-68
2023/01/12 13:17:27;;;;;;;;;;;;;;;25.64;43.97;94543.47;4925777;29;7399;-69
2023/01/12 13:19:59;;;;;;;;;;;;;;;25.69;44.05;94540.69;4906048;29;7290;-70
2023/01/12 13:22:32;;;;;;;;;;;;;;;25.68;44.30;94541.94;4914989;29;7125;-70
2023/01/12 13:25:22;;;;;;;;;;;;;;;25.67;44.17;94543.19;4920867;29;7183;-70
2023/01/12 13:28:16;;;;;;;;;;;;;;;25.70;44.06;94541.44;4908238;29;7296;-70
2023/01/12 13:30:59;;;;;;;;;;;;;;;25.69;43.76;94543.44;4912132;29;7126;-70
2023/01/12 13:33:28;;;;;;;;;;;;;;;25.67;44.34;94532.16;4911175;29;7745;-70
2023/01/12 13:36:07;;;;;;;;;;;;;;;25.68;43.75;94539.19;4923215;29;7260;-70
2023/01/12 13:38:52;;;;;;;;;;;;;;;25.68;43.20;94533.69;4916829;28;9025;-70
2023/01/12 13:44:27;;;;;;;;;;;;;;;25.72;43.95;94545.19;4985771;28;7251;-70
2023/01/12 13:47:02;;;;;;;;;;;;;;;25.67;43.83;94542.44;4966791;28;8631;-70
2023/01/12 13:49:46;;;;;;;;;;;;;;;25.62;44.27;94538.44;5046508;28;7200;-70
2023/01/12 13:52:39;;;;;;;;;;;;;;;25.63;43.56;94537.19;5052284;28;7064;-70
2023/01/12 13:55:26;;;;;;;;;;;;;;;25.64;43.62;94530.44;5063217;28;9163;-70
2023/01/12 13:58:15;;;;;;;;;;;;;;;25.62;44.34;94538.44;5047250;28;9376;-69
2023/01/12 14:00:59;;;;;;;;;;;;;;;25.60;43.69;94543.00;5052509;28;9071;-70
2023/01/12 14:04:06;;;;;;;;;;;;;;;25.61;43.98;94534.22;5048847;28;9786;-70
2023/01/12 14:07:10;;;;;;;;;;;;;;;25.65;43.83;94540.19;4990268;28;7003;-70
2023/01/12 14:10:18;;;;;;;;;;;;;;;25.68;43.90;94528.19;4984950;28;9398;-70
2023/01/12 14:12:52;;;;;;;;;;;;;;;25.71;43.60;94532.66;4989794;28;9821;-70
2023/01/12 14:18:39;;;;;;;;;;;;;;;25.70;44.38;94542.19;4987047;28;7013;-70
2023/01/12 14:21:24;;;;;;;;;;;;;;;25.71;43.76;94531.94;4970057;28;7041;-70
2023/01/12 14:23:52;;;;;;;;;;;;;;;25.73;43.60;94515.63;4977181;28;7063;-70
2023/01/12 14:26:26;;;;;;;;;;;;;;;25.71;43.99;94510.59;4984658;28;8565;-70
2023/01/12 14:28:52;;;;;;;;;;;;;;;25.75;43.54;94511.09;4967592;28;9325;-70
2023/01/12 14:31:18;;;;;;;;;;;;;;;25.75;43.64;94507.59;4986739;28;7031;-70
2023/01/12 14:33:54;;;;;;;;;;;;;;;25.78;43.63;94517.59;4987569;28;7640;-70
2023/01/12 14:36:40;;;;;;;;;;;;;;;25.78;43.84;94512.84;4973667;28;7039;-70
2023/01/12 14:39:13;;;;;;;;;;;;;;;25.78;43.44;94504.56;4981351;28;8928;-70